sensor_id;sensor_type;location;lat;lon;timestamp;pressure;altitude;pressure_sealevel;temperature;humidity
50684;BME280;36654;45.042;38.994;2023-10-13T00:01:57;101901.03;;;8.90;70.86
50684;BME280;36654;45.042;38.994;2023-10-13T00:04:30;101892.69;;;8.79;70.85
50684;BME280;36654;45.042;38.994;2023-10-13T00:06:58;101899.56;;;8.74;71.21
50684;BME280;36654;45.042;38.994;2023-10-13T00:09:26;101891.34;;;8.67;72.32
50684;BME280;36654;45.042;38.994;2023-10-13T00:11:58;101881.09;;;8.52;72.70
50684;BME280;36654;45.042;38.994;2023-10-13T00:14:24;101896.09;;;8.53;72.96
50684;BME280;36654;45.042;38.994;2023-10-13T00:17:03;101877.38;;;8.47;73.27
50684;BME280;36654;45.042;38.994;2023-10-13T00:19:46;101887.34;;;8.54;73.67
50684;BME280;36654;45.042;38.994;2023-10-13T00:22:15;101898.81;;;8.54;73.61
50684;BME280;36654;45.042;38.994;2023-10-13T00:24:45;101901.50;;;8.56;73.82
50684;BME280;36654;45.042;38.994;2023-10-13T00:27:15;101898.94;;;8.57;73.67
50684;BME280;36654;45.042;38.994;2023-10-13T00:30:04;101898.75;;;8.53;73.84
50684;BME280;36654;45.042;38.994;2023-10-13T00:32:52;101905.72;;;8.51;74.05
50684;BME280;36654;45.042;38.994;2023-10-13T00:35:27;101886.28;;;8.49;73.93
50684;BME280;36654;45.042;38.994;2023-10-13T00:38:04;101905.59;;;8.48;74.05
50684;BME280;36654;45.042;38.994;2023-10-13T00:40:31;101898.53;;;8.47;74.11
50684;BME280;36654;45.042;38.994;2023-10-13T00:43:00;101893.97;;;8.42;74.47
50684;BME280;36654;45.042;38.994;2023-10-13T00:45:49;101883.28;;;8.39;74.76
50684;BME280;36654;45.042;38.994;2023-10-13T00:48:37;101884.84;;;8.36;75.25
50684;BME280;36654;45.042;38.994;2023-10-13T00:51:17;101894.59;;;8.37;75.22
50684;BME280;36654;45.042;38.994;2023-10-13T00:54:02;101876.00;;;8.34;75.54
50684;BME280;36654;45.042;38.994;2023-10-13T00:56:33;101855.00;;;8.16;75.66
50684;BME280;36654;45.042;38.994;2023-10-13T00:58:59;101882.06;;;8.31;75.60
50684;BME280;36654;45.042;38.994;2023-10-13T01:01:28;101874.84;;;8.27;75.89
50684;BME280;36654;45.042;38.994;2023-10-13T01:03:58;101881.56;;;8.19;75.94
50684;BME280;36654;45.042;38.994;2023-10-13T01:06:29;101888.72;;;8.21;76.21
50684;BME280;36654;45.042;38.994;2023-10-13T01:09:02;101877.84;;;8.14;76.27
50684;BME280;36654;45.042;38.994;2023-10-13T01:11:48;101895.72;;;8.21;76.32
50684;BME280;36654;45.042;38.994;2023-10-13T01:14:18;101886.06;;;8.21;76.29
50684;BME280;36654;45.042;38.994;2023-10-13T01:16:46;101885.16;;;8.21;76.19
50684;BME280;36654;45.042;38.994;2023-10-13T01:19:15;101877.00;;;8.15;76.25
50684;BME280;36654;45.042;38.994;2023-10-13T01:21:51;101834.63;;;7.89;76.22
50684;BME280;36654;45.042;38.994;2023-10-13T01:24:22;101878.69;;;8.13;76.59
50684;BME280;36654;45.042;38.994;2023-10-13T01:26:50;101866.63;;;7.97;76.47
50684;BME280;36654;45.042;38.994;2023-10-13T01:29:18;101829.06;;;7.82;76.60
50684;BME280;36654;45.042;38.994;2023-10-13T01:31:45;101884.69;;;8.09;76.62
50684;BME280;36654;45.042;38.994;2023-10-13T01:34:20;101875.06;;;8.11;76.74
50684;BME280;36654;45.042;38.994;2023-10-13T01:39:17;101868.72;;;8.06;77.11
50684;BME280;36654;45.042;38.994;2023-10-13T01:41:43;101875.91;;;8.10;77.35
50684;BME280;36654;45.042;38.994;2023-10-13T01:44:09;101877.38;;;8.02;77.08
50684;BME280;36654;45.042;38.994;2023-10-13T01:46:40;101882.06;;;8.09;77.34
50684;BME280;36654;45.042;38.994;2023-10-13T01:49:08;101877.47;;;8.05;77.35
50684;BME280;36654;45.042;38.994;2023-10-13T01:51:34;101883.72;;;8.07;77.14
50684;BME280;36654;45.042;38.994;2023-10-13T01:54:00;101871.31;;;8.04;77.18
50684;BME280;36654;45.042;38.994;2023-10-13T01:56:28;101870.53;;;8.07;77.25
50684;BME280;36654;45.042;38.994;2023-10-13T01:58:55;101830.84;;;7.83;77.27
50684;BME280;36654;45.042;38.994;2023-10-13T02:01:21;101869.75;;;8.09;77.36
50684;BME280;36654;45.042;38.994;2023-10-13T02:03:56;101868.00;;;8.10;77.85
50684;BME280;36654;45.042;38.994;2023-10-13T02:06:34;101870.63;;;8.10;77.68
50684;BME280;36654;45.042;38.994;2023-10-13T02:09:10;101858.03;;;8.03;77.50
50684;BME280;36654;45.042;38.994;2023-10-13T02:11:44;101870.53;;;8.07;77.56
50684;BME280;36654;45.042;38.994;2023-10-13T02:14:13;101871.34;;;8.06;77.45
50684;BME280;36654;45.042;38.994;2023-10-13T02:16:42;101825.47;;;7.81;77.53
50684;BME280;36654;45.042;38.994;2023-10-13T02:19:08;101850.78;;;7.97;77.45
50684;BME280;36654;45.042;38.994;2023-10-13T02:21:34;101801.19;;;7.67;77.50
50684;BME280;36654;45.042;38.994;2023-10-13T02:24:08;101840.72;;;7.88;77.42
50684;BME280;36654;45.042;38.994;2023-10-13T02:27:00;101857.66;;;7.93;77.37
50684;BME280;36654;45.042;38.994;2023-10-13T02:29:35;101852.25;;;7.90;77.44
50684;BME280;36654;45.042;38.994;2023-10-13T02:32:05;101861.16;;;7.92;77.72
50684;BME280;36654;45.042;38.994;2023-10-13T02:34:38;101845.13;;;7.88;77.63
50684;BME280;36654;45.042;38.994;2023-10-13T02:37:10;101809.19;;;7.69;77.81
50684;BME280;36654;45.042;38.994;2023-10-13T02:39:36;101858.50;;;7.92;77.67
50684;BME280;36654;45.042;38.994;2023-10-13T02:42:02;101811.88;;;7.70;77.75
50684;BME280;36654;45.042;38.994;2023-10-13T02:44:33;101844.31;;;7.89;78.00
50684;BME280;36654;45.042;38.994;2023-10-13T02:46:59;101852.38;;;7.93;77.97
50684;BME280;36654;45.042;38.994;2023-10-13T02:49:25;101845.31;;;7.92;78.07
50684;BME280;36654;45.042;38.994;2023-10-13T02:51:55;101836.31;;;7.87;77.87
50684;BME280;36654;45.042;38.994;2023-10-13T02:54:29;101846.94;;;7.89;78.10
50684;BME280;36654;45.042;38.994;2023-10-13T02:56:57;101835.34;;;7.85;77.88
50684;BME280;36654;45.042;38.994;2023-10-13T02:59:26;101793.94;;;7.62;78.26
50684;BME280;36654;45.042;38.994;2023-10-13T03:02:10;101838.09;;;7.88;78.38
50684;BME280;36654;45.042;38.994;2023-10-13T03:04:55;101837.97;;;7.85;78.70
50684;BME280;36654;45.042;38.994;2023-10-13T03:07:39;101828.13;;;7.81;78.89
50684;BME280;36654;45.042;38.994;2023-10-13T03:10:09;101840.50;;;7.82;79.01
50684;BME280;36654;45.042;38.994;2023-10-13T03:12:38;101834.25;;;7.80;79.00
50684;BME280;36654;45.042;38.994;2023-10-13T03:15:04;101838.56;;;7.78;79.20
50684;BME280;36654;45.042;38.994;2023-10-13T03:18:09;101789.00;;;7.48;79.19
50684;BME280;36654;45.042;38.994;2023-10-13T03:20:40;101839.41;;;7.77;79.43
50684;BME280;36654;45.042;38.994;2023-10-13T03:23:07;101844.81;;;7.80;79.55
50684;BME280;36654;45.042;38.994;2023-10-13T03:25:34;101759.47;;;7.36;79.54
50684;BME280;36654;45.042;38.994;2023-10-13T03:28:08;101834.03;;;7.74;79.84
50684;BME280;36654;45.042;38.994;2023-10-13T03:30:37;101787.44;;;7.53;79.72
50684;BME280;36654;45.042;38.994;2023-10-13T03:33:09;101848.53;;;7.85;79.71
50684;BME280;36654;45.042;38.994;2023-10-13T03:35:40;101843.16;;;7.82;79.56
50684;BME280;36654;45.042;38.994;2023-10-13T03:38:08;101817.69;;;7.62;79.17
50684;BME280;36654;45.042;38.994;2023-10-13T03:40:44;101840.44;;;7.81;78.88
50684;BME280;36654;45.042;38.994;2023-10-13T03:43:33;101805.19;;;7.57;78.64
50684;BME280;36654;45.042;38.994;2023-10-13T03:46:10;101852.53;;;7.96;78.26
50684;BME280;36654;45.042;38.994;2023-10-13T03:48:36;101845.22;;;8.13;78.27
50684;BME280;36654;45.042;38.994;2023-10-13T03:51:20;101812.22;;;8.25;77.63
50684;BME280;36654;45.042;38.994;2023-10-13T03:53:46;101845.00;;;8.76;76.82
50684;BME280;36654;45.042;38.994;2023-10-13T03:56:20;101855.19;;;9.15;75.78
50684;BME280;36654;45.042;38.994;2023-10-13T03:58:53;101856.34;;;9.49;74.69
50684;BME280;36654;45.042;38.994;2023-10-13T04:01:45;101859.03;;;9.78;72.57
50684;BME280;36654;45.042;38.994;2023-10-13T04:04:24;101820.25;;;9.80;70.93
50684;BME280;36654;45.042;38.994;2023-10-13T04:07:03;101840.06;;;9.91;69.57
50684;BME280;36654;45.042;38.994;2023-10-13T04:09:38;101861.53;;;9.73;69.61
50684;BME280;36654;45.042;38.994;2023-10-13T04:12:05;101853.47;;;9.43;70.13
50684;BME280;36654;45.042;38.994;2023-10-13T04:14:39;101864.41;;;9.26;70.56
50684;BME280;36654;45.042;38.994;2023-10-13T04:17:24;101871.75;;;9.10;70.68
50684;BME280;36654;45.042;38.994;2023-10-13T04:19:57;101877.59;;;9.01;71.17
50684;BME280;36654;45.042;38.994;2023-10-13T04:22:33;101873.75;;;8.91;71.65
50684;BME280;36654;45.042;38.994;2023-10-13T04:25:26;101860.13;;;8.80;71.87
50684;BME280;36654;45.042;38.994;2023-10-13T04:28:10;101863.63;;;8.79;72.41
50684;BME280;36654;45.042;38.994;2023-10-13T04:30:41;101867.94;;;8.77;72.78
50684;BME280;36654;45.042;38.994;2023-10-13T04:33:13;101867.84;;;8.74;73.26
50684;BME280;36654;45.042;38.994;2023-10-13T04:36:16;101857.38;;;8.77;73.61
50684;BME280;36654;45.042;38.994;2023-10-13T04:38:48;101861.06;;;8.82;73.84
50684;BME280;36654;45.042;38.994;2023-10-13T04:41:46;101856.59;;;8.80;74.04
50684;BME280;36654;45.042;38.994;2023-10-13T04:44:16;101857.72;;;8.87;74.15
50684;BME280;36654;45.042;38.994;2023-10-13T04:47:01;101848.81;;;8.84;74.41
50684;BME280;36654;45.042;38.994;2023-10-13T04:49:31;101857.81;;;8.90;74.42
50684;BME280;36654;45.042;38.994;2023-10-13T04:52:02;101872.31;;;9.01;74.43
50684;BME280;36654;45.042;38.994;2023-10-13T04:54:34;101866.22;;;9.03;74.52
50684;BME280;36654;45.042;38.994;2023-10-13T04:57:20;101870.06;;;9.12;74.92
50684;BME280;36654;45.042;38.994;2023-10-13T05:00:04;101872.75;;;9.13;75.12
50684;BME280;36654;45.042;38.994;2023-10-13T05:05:03;101877.38;;;9.19;75.70
50684;BME280;36654;45.042;38.994;2023-10-13T05:07:29;101875.63;;;9.19;75.68
50684;BME280;36654;45.042;38.994;2023-10-13T05:10:15;101881.06;;;9.24;75.76
50684;BME280;36654;45.042;38.994;2023-10-13T05:12:59;101863.34;;;9.21;75.71
50684;BME280;36654;45.042;38.994;2023-10-13T05:15:44;101876.16;;;9.35;75.87
50684;BME280;36654;45.042;38.994;2023-10-13T05:18:28;101836.63;;;9.14;75.72
50684;BME280;36654;45.042;38.994;2023-10-13T05:21:12;101887.25;;;9.50;75.44
50684;BME280;36654;45.042;38.994;2023-10-13T05:23:56;101845.25;;;9.34;75.39
50684;BME280;36654;45.042;38.994;2023-10-13T05:26:40;101863.41;;;9.50;75.35
50684;BME280;36654;45.042;38.994;2023-10-13T05:29:24;101874.50;;;9.65;75.05
50684;BME280;36654;45.042;38.994;2023-10-13T05:32:08;101835.09;;;9.47;74.71
50684;BME280;36654;45.042;38.994;2023-10-13T05:34:52;101871.22;;;9.72;74.58
50684;BME280;36654;45.042;38.994;2023-10-13T05:37:35;101893.88;;;9.90;74.39
50684;BME280;36654;45.042;38.994;2023-10-13T05:40:19;101878.72;;;9.86;74.30
50684;BME280;36654;45.042;38.994;2023-10-13T05:43:03;101812.56;;;9.60;74.23
50684;BME280;36654;45.042;38.994;2023-10-13T05:45:47;101890.00;;;10.07;73.92
50684;BME280;36654;45.042;38.994;2023-10-13T05:48:48;101897.22;;;10.13;74.06
50684;BME280;36654;45.042;38.994;2023-10-13T05:51:23;101892.16;;;10.19;73.65
50684;BME280;36654;45.042;38.994;2023-10-13T05:54:02;101885.19;;;10.23;73.86
50684;BME280;36654;45.042;38.994;2023-10-13T05:56:43;101894.19;;;10.28;73.82
50684;BME280;36654;45.042;38.994;2023-10-13T05:59:29;101898.84;;;10.35;73.77
50684;BME280;36654;45.042;38.994;2023-10-13T06:02:17;101890.16;;;10.39;73.92
50684;BME280;36654;45.042;38.994;2023-10-13T06:05:03;101890.16;;;10.41;73.84
50684;BME280;36654;45.042;38.994;2023-10-13T06:07:47;101880.66;;;10.47;73.91
50684;BME280;36654;45.042;38.994;2023-10-13T06:10:31;101884.25;;;10.49;73.78
50684;BME280;36654;45.042;38.994;2023-10-13T06:13:15;101873.66;;;10.49;73.76
50684;BME280;36654;45.042;38.994;2023-10-13T06:15:59;101873.75;;;10.52;73.76
50684;BME280;36654;45.042;38.994;2023-10-13T06:18:43;101876.59;;;10.60;73.60
50684;BME280;36654;45.042;38.994;2023-10-13T06:21:27;101886.63;;;10.70;73.42
50684;BME280;36654;45.042;38.994;2023-10-13T06:24:11;101884.97;;;10.74;73.29
50684;BME280;36654;45.042;38.994;2023-10-13T06:26:55;101834.91;;;10.54;73.18
50684;BME280;36654;45.042;38.994;2023-10-13T06:29:39;101880.88;;;10.85;73.07
50684;BME280;36654;45.042;38.994;2023-10-13T06:32:04;101824.44;;;10.59;72.61
50684;BME280;36654;45.042;38.994;2023-10-13T06:34:39;101872.97;;;10.88;72.67
50684;BME280;36654;45.042;38.994;2023-10-13T06:37:17;101875.06;;;10.98;72.50
50684;BME280;36654;45.042;38.994;2023-10-13T06:39:50;101866.31;;;11.02;72.43
50684;BME280;36654;45.042;38.994;2023-10-13T06:42:16;101827.00;;;10.88;72.23
50684;BME280;36654;45.042;38.994;2023-10-13T06:44:42;101870.16;;;11.14;72.17
50684;BME280;36654;45.042;38.994;2023-10-13T06:47:12;101864.19;;;11.21;72.24
50684;BME280;36654;45.042;38.994;2023-10-13T06:49:40;101867.03;;;11.29;72.21
50684;BME280;36654;45.042;38.994;2023-10-13T06:52:09;101863.56;;;11.31;72.12
50684;BME280;36654;45.042;38.994;2023-10-13T06:54:34;101850.50;;;11.40;71.84
50684;BME280;36654;45.042;38.994;2023-10-13T06:57:00;101848.00;;;11.47;71.75
50684;BME280;36654;45.042;38.994;2023-10-13T06:59:29;101858.13;;;11.61;72.05
50684;BME280;36654;45.042;38.994;2023-10-13T07:01:58;101854.00;;;11.74;72.14
50684;BME280;36654;45.042;38.994;2023-10-13T07:04:30;101856.34;;;11.97;71.69
50684;BME280;36654;45.042;38.994;2023-10-13T07:06:56;101843.19;;;12.03;71.50
50684;BME280;36654;45.042;38.994;2023-10-13T07:09:22;101867.00;;;12.38;70.87
50684;BME280;36654;45.042;38.994;2023-10-13T07:12:13;101815.72;;;12.45;70.02
50684;BME280;36654;45.042;38.994;2023-10-13T07:14:46;101857.28;;;12.82;68.28
50684;BME280;36654;45.042;38.994;2023-10-13T07:17:18;101851.53;;;13.06;67.52
50684;BME280;36654;45.042;38.994;2023-10-13T07:19:50;101798.19;;;13.00;66.53
50684;BME280;36654;45.042;38.994;2023-10-13T07:22:19;101855.88;;;13.48;65.58
50684;BME280;36654;45.042;38.994;2023-10-13T07:24:46;101847.22;;;13.62;64.61
50684;BME280;36654;45.042;38.994;2023-10-13T07:27:23;101795.44;;;13.44;63.19
50684;BME280;36654;45.042;38.994;2023-10-13T07:29:55;101851.22;;;13.91;62.80
50684;BME280;36654;45.042;38.994;2023-10-13T07:32:42;101847.00;;;14.07;62.15
50684;BME280;36654;45.042;38.994;2023-10-13T07:35:15;101846.31;;;14.19;61.54
50684;BME280;36654;45.042;38.994;2023-10-13T07:37:43;101839.44;;;14.36;60.69
50684;BME280;36654;45.042;38.994;2023-10-13T07:40:10;101805.53;;;14.29;60.11
50684;BME280;36654;45.042;38.994;2023-10-13T07:42:52;101839.69;;;14.55;58.95
50684;BME280;36654;45.042;38.994;2023-10-13T07:45:18;101837.09;;;14.62;58.44
50684;BME280;36654;45.042;38.994;2023-10-13T07:47:47;101817.59;;;14.66;57.86
50684;BME280;36654;45.042;38.994;2023-10-13T07:50:15;101798.84;;;14.60;57.48
50684;BME280;36654;45.042;38.994;2023-10-13T07:52:49;101790.00;;;14.63;57.00
50684;BME280;36654;45.042;38.994;2023-10-13T07:55:26;101825.91;;;14.93;56.92
50684;BME280;36654;45.042;38.994;2023-10-13T07:57:51;101823.28;;;14.99;56.57
50684;BME280;36654;45.042;38.994;2023-10-13T08:00:21;101818.03;;;15.06;55.81
50684;BME280;36654;45.042;38.994;2023-10-13T08:03:06;101826.06;;;15.08;55.48
50684;BME280;36654;45.042;38.994;2023-10-13T08:05:44;101816.25;;;15.10;55.21
50684;BME280;36654;45.042;38.994;2023-10-13T08:08:29;101784.06;;;14.95;54.90
50684;BME280;36654;45.042;38.994;2023-10-13T08:11:07;101807.41;;;15.14;54.91
50684;BME280;36654;45.042;38.994;2023-10-13T08:13:46;101811.09;;;15.27;54.20
50684;BME280;36654;45.042;38.994;2023-10-13T08:16:15;101796.84;;;15.26;53.66
50684;BME280;36654;45.042;38.994;2023-10-13T08:18:50;101806.78;;;15.43;53.02
50684;BME280;36654;45.042;38.994;2023-10-13T08:21:16;101784.50;;;15.41;52.49
50684;BME280;36654;45.042;38.994;2023-10-13T08:23:43;101785.47;;;15.52;51.78
50684;BME280;36654;45.042;38.994;2023-10-13T08:26:25;101783.75;;;15.62;50.63
50684;BME280;36654;45.042;38.994;2023-10-13T08:29:09;101785.69;;;15.81;49.47
50684;BME280;36654;45.042;38.994;2023-10-13T08:31:50;101791.06;;;15.83;47.75
50684;BME280;36654;45.042;38.994;2023-10-13T08:34:35;101788.50;;;16.01;46.73
50684;BME280;36654;45.042;38.994;2023-10-13T08:37:14;101738.47;;;15.83;46.13
50684;BME280;36654;45.042;38.994;2023-10-13T08:40:00;101757.31;;;16.00;46.23
50684;BME280;36654;45.042;38.994;2023-10-13T08:45:08;101735.94;;;16.12;45.01
50684;BME280;36654;45.042;38.994;2023-10-13T08:47:57;101777.97;;;16.41;43.89
50684;BME280;36654;45.042;38.994;2023-10-13T08:50:49;101770.00;;;16.53;42.62
50684;BME280;36654;45.042;38.994;2023-10-13T08:56:08;101756.66;;;16.70;41.62
50684;BME280;36654;45.042;38.994;2023-10-13T08:58:48;101737.91;;;16.72;41.71
50684;BME280;36654;45.042;38.994;2023-10-13T09:01:20;101742.41;;;16.90;41.57
50684;BME280;36654;45.042;38.994;2023-10-13T09:03:58;101709.41;;;16.83;40.24
50684;BME280;36654;45.042;38.994;2023-10-13T09:06:45;101741.56;;;17.08;40.70
50684;BME280;36654;45.042;38.994;2023-10-13T09:14:56;101741.53;;;17.41;39.80
50684;BME280;36654;45.042;38.994;2023-10-13T09:17:30;101687.94;;;17.29;39.68
50684;BME280;36654;45.042;38.994;2023-10-13T09:22:47;101715.59;;;17.51;39.14
50684;BME280;36654;45.042;38.994;2023-10-13T09:25:34;101722.75;;;17.60;38.53
50684;BME280;36654;45.042;38.994;2023-10-13T09:28:14;101712.88;;;17.62;38.74
50684;BME280;36654;45.042;38.994;2023-10-13T10:17:45;101630.75;;;17.36;34.80
50684;BME280;36654;45.042;38.994;2023-10-13T10:20:12;101675.34;;;17.62;34.55
50684;BME280;36654;45.042;38.994;2023-10-13T10:22:41;101678.06;;;17.57;34.85
50684;BME280;36654;45.042;38.994;2023-10-13T11:21:23;101446.50;;;17.75;32.09
50684;BME280;36654;45.042;38.994;2023-10-13T11:23:57;101525.00;;;18.02;32.25
50684;BME280;36654;45.042;38.994;2023-10-13T11:26:33;101545.50;;;18.14;32.70
50684;BME280;36654;45.042;38.994;2023-10-13T11:28:59;101477.78;;;17.72;32.61
50684;BME280;36654;45.042;38.994;2023-10-13T11:31:24;101375.41;;;17.16;32.90
50684;BME280;36654;45.042;38.994;2023-10-13T11:33:50;101532.19;;;17.97;33.09
50684;BME280;36654;45.042;38.994;2023-10-13T11:36:17;101486.75;;;17.69;33.37
50684;BME280;36654;45.042;38.994;2023-10-13T11:38:47;101515.34;;;17.67;33.43
50684;BME280;36654;45.042;38.994;2023-10-13T11:41:13;101442.28;;;17.37;34.08
50684;BME280;36654;45.042;38.994;2023-10-13T11:43:46;101580.34;;;18.18;33.67
50684;BME280;36654;45.042;38.994;2023-10-13T11:46:15;101665.06;;;18.59;33.51
50684;BME280;36654;45.042;38.994;2023-10-13T11:48:43;101657.03;;;18.56;33.99
50684;BME280;36654;45.042;38.994;2023-10-13T11:51:14;101656.13;;;18.54;34.17
50684;BME280;36654;45.042;38.994;2023-10-13T11:53:47;101628.59;;;18.27;33.90
50684;BME280;36654;45.042;38.994;2023-10-13T11:56:18;101605.38;;;18.20;33.41
50684;BME280;36654;45.042;38.994;2023-10-13T11:58:47;101666.91;;;18.51;33.55
50684;BME280;36654;45.042;38.994;2023-10-13T12:01:14;101668.69;;;18.55;33.63
50684;BME280;36654;45.042;38.994;2023-10-13T12:03:59;101637.44;;;18.42;33.29
50684;BME280;36654;45.042;38.994;2023-10-13T12:06:43;101608.00;;;18.26;33.20
50684;BME280;36654;45.042;38.994;2023-10-13T12:09:12;101657.94;;;18.53;33.18
50684;BME280;36654;45.042;38.994;2023-10-13T12:11:38;101669.53;;;18.60;33.18
50684;BME280;36654;45.042;38.994;2023-10-13T12:14:14;101651.69;;;18.53;33.06
50684;BME280;36654;45.042;38.994;2023-10-13T12:16:51;101605.38;;;18.20;33.28
50684;BME280;36654;45.042;38.994;2023-10-13T12:19:23;101672.19;;;18.65;32.77
50684;BME280;36654;45.042;38.994;2023-10-13T12:21:53;101673.13;;;18.58;32.80
50684;BME280;36654;45.042;38.994;2023-10-13T12:24:28;101667.75;;;18.59;32.69
50684;BME280;36654;45.042;38.994;2023-10-13T12:27:00;101656.13;;;18.56;32.62
50684;BME280;36654;45.042;38.994;2023-10-13T12:29:26;101663.31;;;18.53;32.75
50684;BME280;36654;45.042;38.994;2023-10-13T12:31:56;101666.91;;;18.52;32.97
50684;BME280;36654;45.042;38.994;2023-10-13T12:34:34;101663.38;;;18.47;33.10
50684;BME280;36654;45.042;38.994;2023-10-13T12:37:18;101611.63;;;18.25;33.35
50684;BME280;36654;45.042;38.994;2023-10-13T12:42:47;101649.06;;;18.44;33.03
50684;BME280;36654;45.042;38.994;2023-10-13T12:45:32;101657.09;;;18.44;33.04
50684;BME280;36654;45.042;38.994;2023-10-13T12:48:15;101587.56;;;18.07;32.89
50684;BME280;36654;45.042;38.994;2023-10-13T12:51:03;101595.63;;;18.10;32.84
50684;BME280;36654;45.042;38.994;2023-10-13T12:53:50;101646.44;;;18.35;32.84
50684;BME280;36654;45.042;38.994;2023-10-13T12:56:17;101650.00;;;18.40;33.35
50684;BME280;36654;45.042;38.994;2023-10-13T12:58:43;101653.53;;;18.42;33.24
50684;BME280;36654;45.042;38.994;2023-10-13T13:01:20;101654.41;;;18.47;33.89
50684;BME280;36654;45.042;38.994;2023-10-13T13:03:47;101664.22;;;18.51;33.57
50684;BME280;36654;45.042;38.994;2023-10-13T13:06:16;101613.38;;;18.28;33.36
50684;BME280;36654;45.042;38.994;2023-10-13T13:08:46;101653.50;;;18.48;33.57
50684;BME280;36654;45.042;38.994;2023-10-13T13:11:11;101586.66;;;18.11;33.50
50684;BME280;36654;45.042;38.994;2023-10-13T13:13:37;101650.81;;;18.51;33.73
50684;BME280;36654;45.042;38.994;2023-10-13T13:16:03;101620.50;;;18.35;34.19
50684;BME280;36654;45.042;38.994;2023-10-13T13:18:33;101638.25;;;18.51;33.62
50684;BME280;36654;45.042;38.994;2023-10-13T13:21:00;101651.66;;;18.56;34.17
50684;BME280;36654;45.042;38.994;2023-10-13T13:23:27;101664.16;;;18.60;33.71
50684;BME280;36654;45.042;38.994;2023-10-13T13:25:53;101648.09;;;18.57;34.17
50684;BME280;36654;45.042;38.994;2023-10-13T13:28:19;101640.06;;;18.49;34.33
50684;BME280;36654;45.042;38.994;2023-10-13T13:30:45;101631.09;;;18.52;34.73
50684;BME280;36654;45.042;38.994;2023-10-13T13:33:16;101666.81;;;18.63;34.59
50684;BME280;36654;45.042;38.994;2023-10-13T13:35:42;101593.72;;;18.27;34.42
50684;BME280;36654;45.042;38.994;2023-10-13T13:38:09;101657.06;;;18.53;34.90
50684;BME280;36654;45.042;38.994;2023-10-13T13:40:56;101643.66;;;18.47;35.31
50684;BME280;36654;45.042;38.994;2023-10-13T13:43:22;101655.28;;;18.49;35.53
50684;BME280;36654;45.042;38.994;2023-10-13T13:46:04;101654.47;;;18.36;35.56
50684;BME280;36654;45.042;38.994;2023-10-13T13:48:38;101616.19;;;18.08;35.72
50684;BME280;36654;45.042;38.994;2023-10-13T13:51:05;101645.59;;;18.28;35.80
50684;BME280;36654;45.042;38.994;2023-10-13T13:53:38;101648.28;;;18.22;36.14
50684;BME280;36654;45.042;38.994;2023-10-13T13:56:08;101652.81;;;18.20;35.74
50684;BME280;36654;45.042;38.994;2023-10-13T13:58:33;101631.41;;;18.06;35.93
50684;BME280;36654;45.042;38.994;2023-10-13T14:01:00;101653.72;;;18.11;36.47
50684;BME280;36654;45.042;38.994;2023-10-13T14:03:37;101659.13;;;18.02;36.49
50684;BME280;36654;45.042;38.994;2023-10-13T14:06:10;101659.16;;;18.05;36.57
50684;BME280;36654;45.042;38.994;2023-10-13T14:08:42;101666.31;;;17.97;36.21
50684;BME280;36654;45.042;38.994;2023-10-13T14:11:10;101669.91;;;17.96;36.38
50684;BME280;36654;45.042;38.994;2023-10-13T14:13:40;101599.47;;;17.41;36.51
50684;BME280;36654;45.042;38.994;2023-10-13T14:16:16;101598.59;;;17.42;36.88
50684;BME280;36654;45.042;38.994;2023-10-13T14:18:46;101676.19;;;17.79;36.76
50684;BME280;36654;45.042;38.994;2023-10-13T14:21:13;101669.06;;;17.74;37.07
50684;BME280;36654;45.042;38.994;2023-10-13T14:23:47;101634.31;;;17.51;37.11
50684;BME280;36654;45.042;38.994;2023-10-13T14:26:17;101505.88;;;16.71;37.10
50684;BME280;36654;45.042;38.994;2023-10-13T14:28:55;101626.31;;;17.31;37.08
50684;BME280;36654;45.042;38.994;2023-10-13T14:31:50;101684.31;;;17.61;36.88
50684;BME280;36654;45.042;38.994;2023-10-13T14:34:15;101621.88;;;17.19;37.06
50684;BME280;36654;45.042;38.994;2023-10-13T14:36:41;101683.44;;;17.51;37.57
50684;BME280;36654;45.042;38.994;2023-10-13T14:39:14;101670.97;;;17.32;37.45
50684;BME280;36654;45.042;38.994;2023-10-13T14:41:40;101691.53;;;17.37;37.86
50684;BME280;36654;45.042;38.994;2023-10-13T14:44:06;101680.81;;;17.25;37.81
50684;BME280;36654;45.042;38.994;2023-10-13T14:46:33;101639.75;;;16.98;38.08
50684;BME280;36654;45.042;38.994;2023-10-13T14:49:02;101697.78;;;17.22;38.11
50684;BME280;36654;45.042;38.994;2023-10-13T14:51:28;101710.31;;;17.17;38.33
50684;BME280;36654;45.042;38.994;2023-10-13T14:53:54;101571.03;;;16.41;38.42
50684;BME280;36654;45.042;38.994;2023-10-13T14:56:26;101706.72;;;17.08;38.20
50684;BME280;36654;45.042;38.994;2023-10-13T14:58:53;101706.72;;;17.06;38.49
50684;BME280;36654;45.042;38.994;2023-10-13T15:01:22;101591.53;;;16.37;38.76
50684;BME280;36654;45.042;38.994;2023-10-13T15:03:51;101689.75;;;16.89;38.76
50684;BME280;36654;45.042;38.994;2023-10-13T15:06:26;101710.28;;;16.90;38.74
50684;BME280;36654;45.042;38.994;2023-10-13T15:08:55;101689.72;;;16.75;38.71
50684;BME280;36654;45.042;38.994;2023-10-13T15:11:22;101706.72;;;16.81;38.97
50684;BME280;36654;45.042;38.994;2023-10-13T15:13:52;101703.97;;;16.77;38.86
50684;BME280;36654;45.042;38.994;2023-10-13T15:16:23;101718.31;;;16.82;39.23
50684;BME280;36654;45.042;38.994;2023-10-13T15:18:50;101703.97;;;16.72;39.28
50684;BME280;36654;45.042;38.994;2023-10-13T15:21:23;101711.13;;;16.69;39.30
50684;BME280;36654;45.042;38.994;2023-10-13T15:23:52;101702.22;;;16.65;39.56
50684;BME280;36654;45.042;38.994;2023-10-13T15:26:19;101712.91;;;16.70;39.55